createdAt,value
2016-12-04T00:01:00.342Z,-58
2016-12-04T00:02:01.387Z,-56
2016-12-04T00:02:59.490Z,-57
2016-12-04T00:03:59.439Z,-56
2016-12-04T00:05:00.436Z,-56
2016-12-04T00:05:59.737Z,-59
2016-12-04T00:06:59.841Z,-58
2016-12-04T00:07:59.285Z,-57
2016-12-04T00:08:59.128Z,-59
2016-12-04T00:09:59.892Z,-58
2016-12-04T00:11:00.176Z,-54
2016-12-04T00:11:59.371Z,-58
2016-12-04T00:12:59.375Z,-58
2016-12-04T00:13:59.155Z,-58
2016-12-04T00:14:59.212Z,-58
2016-12-04T00:16:01.607Z,-58
2016-12-04T00:16:59.175Z,-57
2016-12-04T00:17:59.227Z,-57
2016-12-04T00:18:59.304Z,-56
2016-12-04T00:19:59.930Z,-56
2016-12-04T00:21:00.355Z,-57
2016-12-04T00:21:59.193Z,-56
2016-12-04T00:22:59.667Z,-56
2016-12-04T00:23:59.231Z,-59
2016-12-04T00:24:59.340Z,-58
2016-12-04T00:26:00.020Z,-56
2016-12-04T00:26:59.552Z,-57
2016-12-04T00:27:59.914Z,-55
2016-12-04T00:28:59.722Z,-57
2016-12-04T00:29:59.231Z,-58
2016-12-04T00:30:59.208Z,-58
2016-12-04T00:32:00.000Z,-58
2016-12-04T00:33:00.312Z,-56
2016-12-04T00:33:59.653Z,-58
2016-12-04T00:34:59.569Z,-56
2016-12-04T00:35:59.817Z,-57
2016-12-04T00:36:59.830Z,-56
2016-12-04T00:37:59.486Z,-58
2016-12-04T00:38:59.278Z,-59
2016-12-04T00:39:59.745Z,-56
2016-12-04T00:40:59.539Z,-59
2016-12-04T00:42:00.892Z,-57
2016-12-04T00:42:59.260Z,-57
2016-12-04T00:43:59.376Z,-59
2016-12-04T00:44:59.337Z,-59
2016-12-04T00:45:59.506Z,-56
2016-12-04T00:46:59.574Z,-59
2016-12-04T00:47:59.208Z,-57
2016-12-04T00:48:59.342Z,-58
2016-12-04T00:49:59.218Z,-57
2016-12-04T00:50:59.232Z,-57
2016-12-04T00:51:59.932Z,-58
2016-12-04T00:52:59.502Z,-59
2016-12-04T00:53:59.431Z,-54
2016-12-04T00:54:59.346Z,-59
2016-12-04T00:55:59.230Z,-57
2016-12-04T00:56:59.257Z,-55
2016-12-04T00:57:59.294Z,-56
2016-12-04T00:58:59.359Z,-59
2016-12-04T01:00:00.042Z,-57
2016-12-04T01:00:59.760Z,-58
2016-12-04T01:01:59.221Z,-58
2016-12-04T01:02:59.214Z,-59
2016-12-04T01:03:59.249Z,-57
2016-12-04T01:04:59.303Z,-58
2016-12-04T01:05:59.286Z,-57
2016-12-04T01:07:00.291Z,-59
2016-12-04T01:07:59.206Z,-57
2016-12-04T01:08:59.486Z,-58
2016-12-04T01:09:59.577Z,-58
2016-12-04T01:10:59.497Z,-57
2016-12-04T01:11:59.365Z,-54
2016-12-04T01:12:59.175Z,-54
2016-12-04T01:13:59.214Z,-56
2016-12-04T01:14:59.230Z,-53
2016-12-04T01:15:59.256Z,-57
2016-12-04T01:16:59.332Z,-59
2016-12-04T01:17:59.223Z,-58
2016-12-04T01:18:59.389Z,-55
2016-12-04T01:19:59.865Z,-57
2016-12-04T01:21:00.023Z,-55
2016-12-04T01:21:59.268Z,-58
2016-12-04T01:22:59.657Z,-56
2016-12-04T01:23:59.443Z,-58
2016-12-04T01:24:59.399Z,-54
2016-12-04T01:25:59.589Z,-57
2016-12-04T01:26:59.402Z,-59
2016-12-04T01:28:00.180Z,-59
2016-12-04T01:28:59.626Z,-59
2016-12-04T01:29:59.359Z,-60
2016-12-04T01:31:00.314Z,-59
2016-12-04T01:31:59.271Z,-60
2016-12-04T01:33:00.161Z,-57
2016-12-04T01:33:59.384Z,-56
2016-12-04T01:34:59.496Z,-58
2016-12-04T01:36:00.293Z,-59
2016-12-04T01:36:59.276Z,-57
2016-12-04T01:37:59.377Z,-57
2016-12-04T01:38:59.279Z,-58
2016-12-04T01:39:59.221Z,-56
2016-12-04T01:40:59.264Z,-57
2016-12-04T01:42:00.150Z,-58
2016-12-04T01:42:59.350Z,-54
2016-12-04T01:43:59.375Z,-57
2016-12-04T01:44:59.341Z,-56
2016-12-04T01:45:59.383Z,-58
2016-12-04T01:46:59.948Z,-56
2016-12-04T01:47:59.298Z,-56
2016-12-04T01:49:00.211Z,-58
2016-12-04T01:49:59.345Z,-58
2016-12-04T01:51:00.377Z,-61
2016-12-04T01:51:59.349Z,-57
2016-12-04T01:53:00.011Z,-55
2016-12-04T01:54:00.080Z,-57
2016-12-04T01:54:59.656Z,-57
2016-12-04T01:55:59.305Z,-55
2016-12-04T01:57:00.155Z,-56
2016-12-04T01:57:59.786Z,-59
2016-12-04T01:58:59.280Z,-57
2016-12-04T01:59:59.340Z,-57
2016-12-04T02:00:59.267Z,-60
2016-12-04T02:01:59.496Z,-56
2016-12-04T02:02:59.264Z,-58
2016-12-04T02:03:59.936Z,-58
2016-12-04T02:04:59.446Z,-56
2016-12-04T02:05:59.247Z,-57
2016-12-04T02:06:59.404Z,-58
2016-12-04T02:07:59.261Z,-57
2016-12-04T02:09:00.191Z,-53
2016-12-04T02:09:59.264Z,-57
2016-12-04T02:10:59.267Z,-58
2016-12-04T02:12:00.331Z,-56
2016-12-04T02:12:59.612Z,-58
2016-12-04T02:13:59.227Z,-57
2016-12-04T02:14:59.395Z,-57
2016-12-04T02:15:59.603Z,-60
2016-12-04T02:16:59.351Z,-57
2016-12-04T02:17:59.311Z,-58
2016-12-04T02:18:59.324Z,-57
2016-12-04T02:19:59.551Z,-57
2016-12-04T02:20:59.227Z,-56
2016-12-04T02:21:59.277Z,-57
2016-12-04T02:22:59.241Z,-59
2016-12-04T02:23:59.478Z,-54
2016-12-04T02:24:59.457Z,-57
2016-12-04T02:25:59.493Z,-57
2016-12-04T02:26:59.380Z,-57
2016-12-04T02:27:59.814Z,-56
2016-12-04T02:28:59.306Z,-56
2016-12-04T02:29:59.604Z,-57
2016-12-04T02:30:59.325Z,-57
2016-12-04T02:31:59.358Z,-57
2016-12-04T02:32:59.375Z,-60
2016-12-04T02:33:59.324Z,-60
2016-12-04T02:34:59.379Z,-57
2016-12-04T02:35:59.313Z,-59
2016-12-04T02:36:59.583Z,-56
2016-12-04T02:37:59.508Z,-57
2016-12-04T02:38:59.359Z,-57
2016-12-04T02:39:59.432Z,-58
2016-12-04T02:40:59.306Z,-57
2016-12-04T02:41:59.322Z,-57
2016-12-04T02:42:59.368Z,-60
2016-12-04T02:43:59.290Z,-60
2016-12-04T02:44:59.451Z,-56
2016-12-04T02:45:59.749Z,-55
2016-12-04T02:51:17.527Z,-58
2016-12-04T02:51:27.949Z,-57
2016-12-04T02:52:27.777Z,-55
2016-12-04T02:53:27.535Z,-57
2016-12-04T02:54:27.542Z,-56
2016-12-04T02:55:28.101Z,-57
2016-12-04T02:56:27.588Z,-58
2016-12-04T02:57:27.773Z,-58
2016-12-04T02:58:27.615Z,-58
2016-12-04T02:59:27.544Z,-57
2016-12-04T03:00:27.678Z,-57
2016-12-04T03:01:27.565Z,-60
2016-12-04T03:02:27.597Z,-59
2016-12-04T03:03:27.547Z,-57
2016-12-04T03:04:28.049Z,-56
2016-12-04T03:05:27.778Z,-56
2016-12-04T03:06:27.672Z,-57
2016-12-04T03:07:29.081Z,-54
2016-12-04T03:08:27.587Z,-58
2016-12-04T03:09:27.574Z,-57
2016-12-04T03:10:27.592Z,-57
2016-12-04T03:11:27.579Z,-57
2016-12-04T03:12:27.613Z,-57
2016-12-04T03:13:27.740Z,-57
2016-12-04T03:14:27.676Z,-58
2016-12-04T03:15:27.581Z,-56
2016-12-04T03:16:27.692Z,-59
2016-12-04T03:17:27.603Z,-54
2016-12-04T03:18:27.577Z,-58
2016-12-04T03:19:27.701Z,-58
2016-12-04T03:20:27.771Z,-58
2016-12-04T03:21:27.574Z,-56
2016-12-04T03:22:27.521Z,-57
2016-12-04T03:23:27.693Z,-56
2016-12-04T03:24:27.577Z,-56
2016-12-04T03:25:27.642Z,-58
2016-12-04T03:26:27.780Z,-56
2016-12-04T03:27:27.642Z,-58
2016-12-04T03:28:27.850Z,-58
2016-12-04T03:29:27.612Z,-58
2016-12-04T03:30:27.732Z,-55
2016-12-04T03:31:27.608Z,-60
2016-12-04T03:32:27.516Z,-57
2016-12-04T03:33:27.589Z,-57
2016-12-04T03:34:27.598Z,-57
2016-12-04T03:35:27.910Z,-58
2016-12-04T03:36:27.606Z,-54
2016-12-04T03:37:27.697Z,-58
2016-12-04T03:38:27.536Z,-58
2016-12-04T03:39:27.565Z,-57
2016-12-04T03:40:27.583Z,-56
2016-12-04T03:41:27.547Z,-58
2016-12-04T03:42:27.640Z,-56
2016-12-04T03:43:27.572Z,-53
2016-12-04T03:44:28.017Z,-59
2016-12-04T03:45:27.596Z,-55
2016-12-04T03:46:27.726Z,-56
2016-12-04T03:47:27.881Z,-58
2016-12-04T03:48:27.548Z,-60
2016-12-04T03:49:27.673Z,-56
2016-12-04T03:50:28.106Z,-57
2016-12-04T03:51:27.573Z,-55
2016-12-04T03:52:27.767Z,-58
2016-12-04T03:53:27.653Z,-59
2016-12-04T03:54:27.794Z,-59
2016-12-04T03:55:28.591Z,-58
2016-12-04T03:56:27.648Z,-55
2016-12-04T03:57:27.571Z,-58
2016-12-04T03:58:27.607Z,-58
2016-12-04T03:59:27.621Z,-61
2016-12-04T04:00:27.631Z,-53
2016-12-04T04:01:27.634Z,-58
2016-12-04T04:02:27.615Z,-58
2016-12-04T04:03:28.383Z,-57
2016-12-04T04:04:27.626Z,-56
2016-12-04T04:05:27.715Z,-56
2016-12-04T04:06:28.695Z,-57
2016-12-04T04:07:27.709Z,-57
2016-12-04T04:08:27.802Z,-56
2016-12-04T04:09:27.669Z,-58
2016-12-04T04:10:28.533Z,-57
2016-12-04T04:11:27.732Z,-57
2016-12-04T04:12:27.613Z,-59
2016-12-04T04:13:27.642Z,-57
2016-12-04T04:14:27.805Z,-58
2016-12-04T04:15:28.192Z,-60
2016-12-04T04:16:27.938Z,-58
2016-12-04T04:17:27.656Z,-59
2016-12-04T04:18:27.786Z,-58
2016-12-04T04:19:27.617Z,-61
2016-12-04T04:20:28.497Z,-60
2016-12-04T04:21:27.694Z,-60
2016-12-04T04:22:27.723Z,-58
2016-12-04T04:23:28.894Z,-57
2016-12-04T04:24:27.569Z,-56
2016-12-04T04:25:27.661Z,-54
2016-12-04T04:26:27.633Z,-53
2016-12-04T04:27:28.783Z,-52
2016-12-04T04:28:27.562Z,-54
2016-12-04T04:29:27.837Z,-55
2016-12-04T04:30:27.746Z,-57
2016-12-04T04:31:27.774Z,-56
2016-12-04T04:32:27.668Z,-57
2016-12-04T04:33:27.902Z,-57
2016-12-04T04:34:27.656Z,-57
2016-12-04T04:35:28.952Z,-58
2016-12-04T04:36:27.630Z,-56
2016-12-04T04:37:27.739Z,-60
2016-12-04T04:38:27.713Z,-60
2016-12-04T04:39:27.738Z,-58
2016-12-04T04:40:27.707Z,-55
2016-12-04T04:41:27.651Z,-56
2016-12-04T04:42:27.728Z,-57
2016-12-04T04:43:27.632Z,-59
2016-12-04T04:44:27.923Z,-55
2016-12-04T04:45:27.681Z,-57
2016-12-04T04:46:27.622Z,-57
2016-12-04T04:47:27.613Z,-55
2016-12-04T04:48:27.638Z,-58
2016-12-04T04:49:27.570Z,-57
2016-12-04T04:50:27.755Z,-57
2016-12-04T04:51:27.940Z,-56
2016-12-04T04:52:28.232Z,-56
2016-12-04T04:53:27.631Z,-56
2016-12-04T04:54:27.646Z,-55
2016-12-04T04:55:27.605Z,-55
2016-12-04T04:56:27.636Z,-57
2016-12-04T04:57:27.626Z,-58
2016-12-04T04:58:27.682Z,-58
2016-12-04T04:59:27.593Z,-55
2016-12-04T05:00:27.690Z,-56
2016-12-04T05:01:27.687Z,-58
2016-12-04T05:02:28.167Z,-57
2016-12-04T05:03:27.580Z,-57
2016-12-04T05:04:27.647Z,-60
2016-12-04T05:05:27.619Z,-58
2016-12-04T05:06:27.613Z,-61
2016-12-04T05:07:27.590Z,-58
2016-12-04T05:08:27.657Z,-57
2016-12-04T05:09:27.658Z,-56
2016-12-04T05:10:28.059Z,-56
2016-12-04T05:11:27.731Z,-59
2016-12-04T05:12:27.817Z,-57
2016-12-04T05:13:27.629Z,-60
2016-12-04T05:14:27.694Z,-58
2016-12-04T05:15:27.619Z,-57
2016-12-04T05:16:28.571Z,-57
2016-12-04T05:17:27.731Z,-57
2016-12-04T05:18:27.625Z,-57
2016-12-04T05:19:27.732Z,-56
2016-12-04T05:20:27.668Z,-57
2016-12-04T05:21:27.825Z,-55
2016-12-04T05:22:28.321Z,-58
2016-12-04T05:23:27.669Z,-58
2016-12-04T05:24:27.627Z,-58
2016-12-04T05:25:27.640Z,-57
2016-12-04T05:26:27.704Z,-57
2016-12-04T05:27:27.625Z,-57
2016-12-04T05:28:27.679Z,-56
2016-12-04T05:29:27.624Z,-56
2016-12-04T05:30:27.704Z,-58
2016-12-04T05:31:28.661Z,-58
2016-12-04T05:32:27.681Z,-59
2016-12-04T05:33:27.589Z,-58
2016-12-04T05:34:29.472Z,-57
2016-12-04T05:35:27.702Z,-59
2016-12-04T05:36:27.689Z,-56
2016-12-04T05:37:27.635Z,-56
2016-12-04T05:38:27.613Z,-54
2016-12-04T05:39:27.725Z,-58
2016-12-04T05:40:27.760Z,-56
2016-12-04T05:41:27.811Z,-59
2016-12-04T05:42:27.660Z,-58
2016-12-04T05:43:27.675Z,-57
2016-12-04T05:44:27.625Z,-57
2016-12-04T05:45:27.670Z,-57
2016-12-04T05:46:27.643Z,-57
2016-12-04T05:47:27.667Z,-56
2016-12-04T05:48:27.655Z,-56
2016-12-04T05:49:27.628Z,-59
2016-12-04T05:50:27.627Z,-58
2016-12-04T05:51:27.705Z,-59
2016-12-04T05:52:27.728Z,-57
2016-12-04T05:53:27.606Z,-57
2016-12-04T05:54:27.642Z,-59
2016-12-04T05:55:27.815Z,-59
2016-12-04T05:56:27.859Z,-57
2016-12-04T05:57:27.715Z,-57
2016-12-04T05:58:27.681Z,-53
2016-12-04T05:59:27.626Z,-58
2016-12-04T06:00:27.692Z,-58
2016-12-04T06:01:27.804Z,-59
2016-12-04T06:02:27.582Z,-61
2016-12-04T06:03:27.628Z,-58
2016-12-04T06:04:28.419Z,-58
2016-12-04T06:05:27.590Z,-58
2016-12-04T06:06:27.741Z,-56
2016-12-04T06:07:27.596Z,-58
2016-12-04T06:08:27.652Z,-58
2016-12-04T06:09:27.628Z,-54
2016-12-04T06:10:27.639Z,-58
2016-12-04T06:11:27.627Z,-56
2016-12-04T06:12:27.788Z,-57
2016-12-04T06:13:28.361Z,-55
2016-12-04T06:14:28.304Z,-57
2016-12-04T06:15:27.767Z,-57
2016-12-04T06:16:27.724Z,-57
2016-12-04T06:17:27.625Z,-56
2016-12-04T06:18:28.380Z,-56
2016-12-04T06:19:27.719Z,-57
2016-12-04T06:20:27.639Z,-58
2016-12-04T06:21:29.862Z,-58
2016-12-04T06:22:27.749Z,-54
2016-12-04T06:23:27.854Z,-56
2016-12-04T06:24:27.701Z,-56
2016-12-04T06:25:27.767Z,-56
2016-12-04T06:26:27.713Z,-59
2016-12-04T06:27:27.770Z,-56
2016-12-04T06:28:27.718Z,-59
2016-12-04T06:29:27.811Z,-56
2016-12-04T06:30:28.051Z,-56
2016-12-04T06:31:27.713Z,-55
2016-12-04T06:32:28.016Z,-59
2016-12-04T06:33:27.699Z,-54
2016-12-04T06:34:27.841Z,-55
2016-12-04T06:35:28.891Z,-58
2016-12-04T06:36:27.696Z,-58
2016-12-04T06:37:27.721Z,-58
2016-12-04T06:38:27.739Z,-57
2016-12-04T06:39:27.797Z,-56
2016-12-04T06:40:27.680Z,-58
2016-12-04T06:41:27.841Z,-58
2016-12-04T06:42:27.729Z,-56
2016-12-04T06:43:27.834Z,-58
2016-12-04T06:44:27.888Z,-57
2016-12-04T06:45:27.883Z,-55
2016-12-04T06:46:27.745Z,-56
2016-12-04T06:47:27.760Z,-56
2016-12-04T06:48:28.040Z,-58
2016-12-04T06:49:27.684Z,-57
2016-12-04T06:50:27.689Z,-58
2016-12-04T06:51:27.758Z,-57
2016-12-04T06:52:27.705Z,-59
2016-12-04T06:53:28.489Z,-55
2016-12-04T06:54:27.723Z,-55
2016-12-04T06:55:28.321Z,-56
2016-12-04T06:56:27.727Z,-56
2016-12-04T06:57:27.756Z,-56
2016-12-04T06:58:27.689Z,-57
2016-12-04T06:59:27.689Z,-56
2016-12-04T07:00:27.703Z,-56
2016-12-04T07:01:27.673Z,-56
2016-12-04T07:02:27.745Z,-55
2016-12-04T07:03:27.733Z,-57
2016-12-04T07:04:27.695Z,-56
2016-12-04T07:05:27.782Z,-56
2016-12-04T07:06:27.772Z,-56
2016-12-04T07:07:27.714Z,-60
2016-12-04T07:08:27.607Z,-59
2016-12-04T07:09:27.617Z,-59
2016-12-04T07:10:27.946Z,-58
2016-12-04T07:11:28.743Z,-56
2016-12-04T07:12:27.726Z,-59
2016-12-04T07:13:27.716Z,-59
2016-12-04T07:14:27.723Z,-55
2016-12-04T07:15:27.588Z,-54
2016-12-04T07:16:27.647Z,-53
2016-12-04T07:17:27.647Z,-58
2016-12-04T07:18:27.874Z,-57
2016-12-04T07:19:27.655Z,-59
2016-12-04T07:20:27.598Z,-57
2016-12-04T07:21:27.842Z,-59
2016-12-04T07:22:27.779Z,-59
2016-12-04T07:23:27.690Z,-58
2016-12-04T07:24:28.309Z,-57
2016-12-04T07:25:27.714Z,-57
2016-12-04T07:26:27.795Z,-61
2016-12-04T07:27:27.612Z,-59
2016-12-04T07:28:27.654Z,-55
2016-12-04T07:29:27.897Z,-56
2016-12-04T07:30:27.643Z,-57
2016-12-04T07:31:27.753Z,-57
2016-12-04T07:32:27.683Z,-56
2016-12-04T07:33:27.700Z,-58
2016-12-04T07:34:27.731Z,-58
2016-12-04T07:35:27.726Z,-59
2016-12-04T07:36:27.827Z,-58
2016-12-04T07:37:27.810Z,-56
2016-12-04T07:38:27.709Z,-57
2016-12-04T07:39:27.813Z,-56
2016-12-04T07:40:27.716Z,-60
2016-12-04T07:41:28.383Z,-59
2016-12-04T07:42:27.749Z,-62
2016-12-04T07:43:28.687Z,-59
2016-12-04T07:44:27.768Z,-58
2016-12-04T07:45:28.421Z,-56
2016-12-04T07:46:27.816Z,-57
2016-12-04T07:47:27.701Z,-58
2016-12-04T07:48:27.624Z,-57
2016-12-04T07:49:27.748Z,-57
2016-12-04T07:50:27.756Z,-56
2016-12-04T07:51:27.859Z,-58
2016-12-04T07:52:27.825Z,-57
2016-12-04T07:53:27.708Z,-56
2016-12-04T07:54:27.974Z,-57
2016-12-04T07:55:27.694Z,-55
2016-12-04T07:56:27.697Z,-60
2016-12-04T07:57:27.750Z,-59
2016-12-04T07:58:27.704Z,-57
2016-12-04T07:59:27.696Z,-57
2016-12-04T08:00:27.688Z,-56
2016-12-04T08:01:27.775Z,-61
2016-12-04T08:02:27.823Z,-60
2016-12-04T08:03:27.781Z,-58
2016-12-04T08:04:27.840Z,-57
2016-12-04T08:05:27.717Z,-55
2016-12-04T08:06:27.813Z,-58
2016-12-04T08:07:27.788Z,-57
2016-12-04T08:08:27.840Z,-57
2016-12-04T08:09:27.817Z,-56
2016-12-04T08:10:27.720Z,-58
2016-12-04T08:11:27.731Z,-55
2016-12-04T08:12:27.754Z,-56
2016-12-04T08:13:27.709Z,-57
2016-12-04T08:14:27.766Z,-56
2016-12-04T08:15:27.704Z,-57
2016-12-04T08:16:27.728Z,-57
2016-12-04T08:17:27.750Z,-56
2016-12-04T08:18:27.743Z,-61
2016-12-04T08:19:27.772Z,-59
2016-12-04T08:20:27.731Z,-58
2016-12-04T08:21:27.759Z,-58
2016-12-04T08:22:27.761Z,-55
2016-12-04T08:23:27.739Z,-58
2016-12-04T08:24:27.711Z,-57
2016-12-04T08:25:27.724Z,-54
2016-12-04T08:26:27.729Z,-56
2016-12-04T08:27:27.788Z,-57
2016-12-04T08:28:27.712Z,-57
2016-12-04T08:29:27.721Z,-57
2016-12-04T08:30:27.703Z,-58
2016-12-04T08:31:27.710Z,-57
2016-12-04T08:32:27.760Z,-56
2016-12-04T08:33:27.746Z,-58
2016-12-04T08:34:27.819Z,-58
2016-12-04T08:35:27.736Z,-56
2016-12-04T08:36:27.738Z,-57
2016-12-04T08:37:27.801Z,-57
2016-12-04T08:38:27.792Z,-58
2016-12-04T08:39:27.775Z,-56
2016-12-04T08:40:27.781Z,-57
2016-12-04T08:41:27.729Z,-57
2016-12-04T08:42:27.777Z,-60
2016-12-04T08:43:27.756Z,-59
2016-12-04T08:44:27.695Z,-58
2016-12-04T08:45:27.641Z,-57
2016-12-04T08:46:27.668Z,-59
2016-12-04T08:47:27.699Z,-56
2016-12-04T08:48:27.696Z,-56
2016-12-04T08:49:27.692Z,-57
2016-12-04T08:50:27.684Z,-56
2016-12-04T08:51:27.648Z,-57
2016-12-04T08:52:27.696Z,-54
2016-12-04T08:53:27.696Z,-56
2016-12-04T08:54:27.663Z,-56
2016-12-04T08:55:27.743Z,-55
2016-12-04T08:56:27.661Z,-56
2016-12-04T08:57:27.797Z,-57
2016-12-04T08:58:27.738Z,-59
2016-12-04T08:59:28.543Z,-58
2016-12-04T09:00:27.792Z,-57
2016-12-04T09:01:27.823Z,-58
2016-12-04T09:02:27.754Z,-57
2016-12-04T09:03:27.743Z,-55
2016-12-04T09:04:27.786Z,-60
2016-12-04T09:05:27.773Z,-57
2016-12-04T09:06:27.939Z,-57
2016-12-04T09:07:27.823Z,-57
2016-12-04T09:08:27.802Z,-57
2016-12-04T09:09:27.839Z,-57
2016-12-04T09:10:27.800Z,-57
2016-12-04T09:11:27.954Z,-57
2016-12-04T09:12:27.997Z,-57
2016-12-04T09:13:27.763Z,-57
2016-12-04T09:14:27.833Z,-61
2016-12-04T09:15:27.874Z,-58
2016-12-04T09:16:27.973Z,-59
2016-12-04T09:17:27.795Z,-58
2016-12-04T09:18:27.952Z,-57
2016-12-04T09:19:27.877Z,-57
2016-12-04T09:20:27.772Z,-58
2016-12-04T09:21:27.785Z,-58
2016-12-04T09:22:27.886Z,-58
2016-12-04T09:23:27.765Z,-58
2016-12-04T09:24:27.814Z,-58
2016-12-04T09:25:27.763Z,-57
2016-12-04T09:26:27.817Z,-56
2016-12-04T09:27:27.888Z,-63
2016-12-04T09:28:27.688Z,-59
2016-12-04T09:29:28.010Z,-64
2016-12-04T09:30:27.626Z,-58
2016-12-04T09:31:27.685Z,-57
2016-12-04T09:32:27.758Z,-59
2016-12-04T09:33:27.746Z,-59
2016-12-04T09:34:40.246Z,-58
2016-12-04T09:35:28.144Z,-60
2016-12-04T09:36:39.104Z,-60
2016-12-04T09:37:40.729Z,-59
2016-12-04T09:38:37.627Z,-59
2016-12-04T09:39:41.827Z,-60
2016-12-04T09:40:30.638Z,-59
2016-12-04T09:41:42.150Z,-62
2016-12-04T09:42:41.394Z,-61
2016-12-04T09:43:40.351Z,-60
2016-12-04T09:44:40.777Z,-57
2016-12-04T09:45:40.772Z,-59
2016-12-04T09:46:40.477Z,-60
2016-12-04T09:47:44.778Z,-60
2016-12-04T09:48:41.267Z,-61
2016-12-04T09:49:41.635Z,-61
2016-12-04T09:50:42.016Z,-60
2016-12-04T09:51:42.813Z,-60
2016-12-04T09:52:42.944Z,-58
2016-12-04T09:53:41.720Z,-60
2016-12-04T09:54:42.866Z,-59
2016-12-04T09:55:41.557Z,-60
2016-12-04T09:56:41.471Z,-60
2016-12-04T09:57:32.382Z,-62
2016-12-04T09:58:40.674Z,-63
2016-12-04T09:59:39.787Z,-62
2016-12-04T10:00:40.356Z,-62
2016-12-04T10:01:41.198Z,-65
2016-12-04T10:02:27.879Z,-60
2016-12-04T10:03:28.753Z,-61
2016-12-04T10:04:28.057Z,-60
2016-12-04T10:05:27.811Z,-63
2016-12-04T10:06:27.780Z,-62
2016-12-04T10:07:28.004Z,-61
2016-12-04T10:08:28.210Z,-62
2016-12-04T10:09:28.728Z,-61
2016-12-04T10:10:27.740Z,-63
2016-12-04T10:11:27.779Z,-61
2016-12-04T10:12:27.909Z,-60
2016-12-04T10:13:27.750Z,-61
2016-12-04T10:14:28.035Z,-60
2016-12-04T10:15:28.030Z,-63
2016-12-04T10:16:27.889Z,-63
2016-12-04T10:17:27.804Z,-61
2016-12-04T10:18:27.823Z,-61
2016-12-04T10:19:27.966Z,-59
2016-12-04T10:20:27.809Z,-62
2016-12-04T10:21:27.777Z,-60
2016-12-04T10:22:27.990Z,-58
2016-12-04T10:23:27.775Z,-62
2016-12-04T10:24:27.817Z,-58
2016-12-04T10:25:27.769Z,-59
2016-12-04T10:26:28.012Z,-61
2016-12-04T10:27:28.321Z,-63
2016-12-04T10:28:27.904Z,-64
2016-12-04T10:29:28.105Z,-60
2016-12-04T10:30:28.701Z,-59
2016-12-04T10:31:28.405Z,-62
2016-12-04T10:32:27.793Z,-62
2016-12-04T10:33:28.579Z,-61
2016-12-04T10:34:27.763Z,-63
2016-12-04T10:35:27.757Z,-60
2016-12-04T10:36:27.737Z,-63
2016-12-04T10:37:28.282Z,-61
2016-12-04T10:38:27.803Z,-63
2016-12-04T10:39:27.747Z,-64
2016-12-04T10:40:28.312Z,-60
2016-12-04T10:41:27.841Z,-59
2016-12-04T10:42:27.900Z,-62
2016-12-04T10:43:27.818Z,-64
2016-12-04T10:44:28.592Z,-61
2016-12-04T10:45:27.762Z,-60
2016-12-04T10:46:27.831Z,-59
2016-12-04T10:47:27.928Z,-61
2016-12-04T10:48:28.643Z,-62
2016-12-04T10:49:27.875Z,-62
2016-12-04T10:50:27.840Z,-64
2016-12-04T10:51:27.778Z,-63
2016-12-04T10:52:27.778Z,-60
2016-12-04T10:53:27.761Z,-62
2016-12-04T10:54:27.782Z,-59
2016-12-04T10:55:27.850Z,-63
2016-12-04T10:56:27.749Z,-63
2016-12-04T10:57:28.068Z,-63
2016-12-04T10:58:27.762Z,-65
2016-12-04T10:59:28.149Z,-61
2016-12-04T11:00:28.064Z,-58
2016-12-04T11:01:27.815Z,-61
2016-12-04T11:02:28.123Z,-65
2016-12-04T11:03:27.832Z,-62
2016-12-04T11:04:28.034Z,-60
2016-12-04T11:05:28.005Z,-63
2016-12-04T11:06:27.851Z,-63
2016-12-04T11:07:27.837Z,-61
2016-12-04T11:08:27.950Z,-60
2016-12-04T11:09:27.796Z,-62
2016-12-04T11:10:27.989Z,-60
2016-12-04T11:11:27.863Z,-62
2016-12-04T11:12:27.876Z,-60
2016-12-04T11:13:27.782Z,-57
2016-12-04T11:14:27.777Z,-62
2016-12-04T11:15:28.282Z,-64
2016-12-04T11:16:28.007Z,-62
2016-12-04T11:17:27.807Z,-65
2016-12-04T11:18:28.119Z,-63
2016-12-04T11:19:28.108Z,-66
2016-12-04T11:20:27.895Z,-67
2016-12-04T11:21:27.858Z,-64
2016-12-04T11:22:27.791Z,-61
2016-12-04T11:23:27.973Z,-61
2016-12-04T11:24:27.876Z,-61
2016-12-04T11:25:28.001Z,-64
2016-12-04T11:26:27.844Z,-60
2016-12-04T11:27:28.653Z,-62
2016-12-04T11:28:27.850Z,-63
2016-12-04T11:29:27.897Z,-61
2016-12-04T11:30:29.344Z,-63
2016-12-04T11:31:27.971Z,-61
2016-12-04T11:32:27.917Z,-61
2016-12-04T11:33:27.836Z,-60
2016-12-04T11:34:27.796Z,-61
2016-12-04T11:35:28.642Z,-61
2016-12-04T11:36:27.858Z,-60
2016-12-04T11:37:28.143Z,-61
2016-12-04T11:38:27.895Z,-61
2016-12-04T11:39:28.492Z,-62
2016-12-04T11:40:27.956Z,-60
2016-12-04T11:41:29.099Z,-62
2016-12-04T11:42:27.893Z,-61
2016-12-04T11:43:27.924Z,-60
2016-12-04T11:44:27.815Z,-58
2016-12-04T11:45:27.874Z,-60
2016-12-04T11:46:28.617Z,-57
2016-12-04T11:47:27.892Z,-58
2016-12-04T11:48:27.822Z,-61
2016-12-04T11:49:28.193Z,-59
2016-12-04T11:50:28.142Z,-64
2016-12-04T11:51:27.979Z,-62
2016-12-04T11:52:28.020Z,-64
2016-12-04T11:53:28.679Z,-64
2016-12-04T11:54:28.849Z,-67
2016-12-04T11:55:27.948Z,-61
2016-12-04T11:56:28.217Z,-62
2016-12-04T11:57:27.948Z,-64
2016-12-04T11:58:28.267Z,-66
2016-12-04T11:59:29.144Z,-64
2016-12-04T12:00:27.836Z,-64
2016-12-04T12:01:28.376Z,-62
2016-12-04T12:02:28.258Z,-60
2016-12-04T12:03:27.972Z,-63
2016-12-04T12:04:27.892Z,-59
2016-12-04T12:05:27.927Z,-60
2016-12-04T12:06:28.129Z,-59
2016-12-04T12:07:28.090Z,-61
2016-12-04T12:08:27.806Z,-60
2016-12-04T12:09:28.036Z,-59
2016-12-04T12:10:30.559Z,-62
2016-12-04T12:11:28.497Z,-57
2016-12-04T12:12:28.672Z,-62
2016-12-04T12:13:27.882Z,-61
2016-12-04T12:14:27.839Z,-58
2016-12-04T12:15:27.848Z,-64
2016-12-04T12:16:27.825Z,-60
2016-12-04T12:17:27.937Z,-61
2016-12-04T12:18:27.894Z,-61
2016-12-04T12:19:28.601Z,-61
2016-12-04T12:20:28.786Z,-66
2016-12-04T12:21:27.892Z,-66
2016-12-04T12:22:27.996Z,-64
2016-12-04T12:23:28.005Z,-65
2016-12-04T12:24:27.945Z,-65
2016-12-04T12:25:27.844Z,-66
2016-12-04T12:26:27.884Z,-66
2016-12-04T12:27:27.903Z,-66
2016-12-04T12:28:28.056Z,-64
2016-12-04T12:29:29.415Z,-62
2016-12-04T12:30:28.121Z,-61
2016-12-04T12:31:28.084Z,-60
2016-12-04T12:32:28.145Z,-60
2016-12-04T12:33:27.827Z,-63
2016-12-04T12:34:27.937Z,-64
2016-12-04T12:35:28.733Z,-61
2016-12-04T12:36:28.856Z,-60
2016-12-04T12:37:29.309Z,-60
2016-12-04T12:38:28.663Z,-61
2016-12-04T12:39:27.795Z,-60
2016-12-04T12:40:28.296Z,-61
2016-12-04T12:41:27.894Z,-63
2016-12-04T12:42:28.390Z,-61
2016-12-04T12:43:27.949Z,-60
2016-12-04T12:44:27.914Z,-59
2016-12-04T12:45:28.085Z,-59
2016-12-04T12:46:27.972Z,-63
2016-12-04T12:47:28.777Z,-58
2016-12-04T12:48:28.721Z,-60
2016-12-04T12:49:28.484Z,-62
2016-12-04T12:50:28.692Z,-62
2016-12-04T12:51:28.417Z,-63
2016-12-04T12:52:27.872Z,-63
2016-12-04T12:53:28.226Z,-61
2016-12-04T12:54:28.196Z,-61
2016-12-04T12:55:29.114Z,-64
2016-12-04T12:56:27.897Z,-60
2016-12-04T12:57:27.981Z,-65
2016-12-04T12:58:28.169Z,-60
2016-12-04T12:59:27.914Z,-63
2016-12-04T13:00:28.021Z,-61
2016-12-04T13:01:28.771Z,-61
2016-12-04T13:02:28.427Z,-63
2016-12-04T13:03:28.492Z,-63
2016-12-04T13:04:28.124Z,-63
2016-12-04T13:05:28.974Z,-61
2016-12-04T13:06:27.881Z,-63
2016-12-04T13:07:28.937Z,-62
2016-12-04T13:08:27.909Z,-60
2016-12-04T13:09:28.044Z,-59
2016-12-04T13:10:27.920Z,-61
2016-12-04T13:11:27.827Z,-60
2016-12-04T13:12:27.863Z,-64
2016-12-04T13:13:27.824Z,-62
2016-12-04T13:14:29.514Z,-60
2016-12-04T13:15:27.895Z,-62
2016-12-04T13:16:28.289Z,-61
2016-12-04T13:17:28.193Z,-61
2016-12-04T13:18:27.995Z,-60
2016-12-04T13:19:27.838Z,-60
2016-12-04T13:20:27.863Z,-61
2016-12-04T13:21:27.863Z,-61
2016-12-04T13:22:27.987Z,-60
2016-12-04T13:23:27.912Z,-64
2016-12-04T13:24:27.843Z,-65
2016-12-04T13:25:28.019Z,-58
2016-12-04T13:26:28.126Z,-61
2016-12-04T13:27:27.939Z,-61
2016-12-04T13:28:27.870Z,-62
2016-12-04T13:29:27.932Z,-61
2016-12-04T13:30:27.884Z,-63
2016-12-04T13:31:27.892Z,-59
2016-12-04T13:32:27.983Z,-59
2016-12-04T13:33:27.906Z,-59
2016-12-04T13:34:27.967Z,-59
2016-12-04T13:35:27.856Z,-60
2016-12-04T13:36:27.876Z,-60
2016-12-04T13:37:27.911Z,-63
2016-12-04T13:38:27.935Z,-62
2016-12-04T13:39:27.866Z,-63
2016-12-04T13:40:28.746Z,-62
2016-12-04T13:41:27.976Z,-62
2016-12-04T13:42:28.023Z,-64
2016-12-04T13:43:28.017Z,-64
2016-12-04T13:44:27.894Z,-61
2016-12-04T13:45:28.043Z,-61
2016-12-04T13:46:28.000Z,-61
2016-12-04T13:47:27.916Z,-62
2016-12-04T13:48:28.724Z,-62
2016-12-04T13:49:27.932Z,-62
2016-12-04T13:50:27.924Z,-61